Time;durP1;ratioP1;P1;durP2;ratioP2;P2;SDS_P1;SDS_P2;PMS_P1;PMS_P2;Temp;Humidity;BMP_temperature;BMP_pressure;BME280_temperature;BME280_humidity;BME280_pressure;Samples;Min_cycle;Max_cycle;Signal;HPM_P1;HPM_P2
2022/04/30 00:00:09;;;;;;;0.30;0.30;;;7.90;68.70;;;;;;5115947;28;20144;-74
2022/04/30 00:02:35;;;;;;;0.55;0.20;;;7.80;68.70;;;;;;5097116;28;20043;-74
2022/04/30 00:05:01;;;;;;;0.30;0.30;;;7.70;68.70;;;;;;5115282;28;20965;-74
2022/04/30 00:07:27;;;;;;;0.32;0.25;;;7.80;68.70;;;;;;5097189;28;20396;-74
2022/04/30 00:09:53;;;;;;;0.30;0.30;;;7.70;68.70;;;;;;5080078;28;20040;-74
2022/04/30 00:12:19;;;;;;;0.30;0.20;;;7.80;68.90;;;;;;5115807;28;20069;-73
2022/04/30 00:14:47;;;;;;;0.30;0.30;;;7.70;68.90;;;;;;5115162;28;20477;-74
2022/04/30 00:17:13;;;;;;;0.30;0.30;;;7.70;69.10;;;;;;5115638;28;20036;-74
2022/04/30 00:19:39;;;;;;;0.30;0.30;;;7.60;69.10;;;;;;5115380;28;20039;-74
2022/04/30 00:22:06;;;;;;;0.20;0.20;;;7.50;69.10;;;;;;5115209;28;20084;-73
2022/04/30 00:24:31;;;;;;;0.30;0.30;;;7.60;69.30;;;;;;5080155;28;20039;-74
2022/04/30 00:26:59;;;;;;;0.10;0.10;;;7.50;69.40;;;;;;5096898;28;20200;-74
2022/04/30 00:29:27;;;;;;;0.20;0.20;;;7.40;69.50;;;;;;5114984;28;20044;-74
2022/04/30 00:31:52;;;;;;;0.45;0.35;;;7.40;69.60;;;;;;5114934;28;20035;-74
2022/04/30 00:34:18;;;;;;;0.73;0.40;;;7.40;69.60;;;;;;5114993;28;20515;-74
2022/04/30 00:36:44;;;;;;;0.40;0.40;;;7.40;69.80;;;;;;5115317;28;20114;-74
2022/04/30 00:39:10;;;;;;;0.20;0.20;;;7.40;69.90;;;;;;5114848;28;20488;-74
2022/04/30 00:41:41;;;;;;;0.30;0.30;;;7.30;69.80;;;;;;5115127;28;20465;-71
2022/04/30 00:44:07;;;;;;;0.65;0.47;;;7.30;70.00;;;;;;5114801;28;20063;-72
2022/04/30 00:46:32;;;;;;;0.10;0.10;;;7.30;70.00;;;;;;5096263;28;20109;-72
2022/04/30 00:49:01;;;;;;;0.30;0.30;;;7.30;70.10;;;;;;5114264;28;20079;-72
2022/04/30 00:51:28;;;;;;;0.80;0.40;;;7.10;70.00;;;;;;5114537;28;20043;-72
2022/04/30 00:53:55;;;;;;;0.47;0.40;;;7.20;70.10;;;;;;5114520;28;20089;-72
2022/04/30 00:56:27;;;;;;;0.43;0.35;;;7.10;70.20;;;;;;5114548;28;20123;-72
2022/04/30 00:58:56;;;;;;;0.40;0.40;;;7.10;70.30;;;;;;5096778;28;20075;-72
2022/04/30 01:01:23;;;;;;;0.40;0.38;;;7.10;70.30;;;;;;5114474;28;20063;-72
2022/04/30 01:03:48;;;;;;;1.48;0.40;;;7.10;70.40;;;;;;5114881;28;20040;-72
2022/04/30 01:06:15;;;;;;;0.55;0.40;;;7.10;70.50;;;;;;5095503;28;20043;-72
2022/04/30 01:08:41;;;;;;;0.65;0.47;;;7.10;70.50;;;;;;5114763;28;20126;-72
2022/04/30 01:11:07;;;;;;;0.50;0.50;;;7.00;70.50;;;;;;5114170;28;20043;-72
2022/04/30 01:13:35;;;;;;;1.27;0.30;;;7.00;70.50;;;;;;5096181;28;20405;-72
2022/04/30 01:16:03;;;;;;;0.95;0.38;;;7.00;70.70;;;;;;5112937;28;20481;-72
2022/04/30 01:18:30;;;;;;;0.43;0.40;;;6.90;70.70;;;;;;5096103;28;20028;-72
2022/04/30 01:21:03;;;;;;;0.30;0.30;;;7.00;70.80;;;;;;5096593;28;20059;-72
2022/04/30 01:23:31;;;;;;;0.32;0.32;;;6.90;70.90;;;;;;5096010;28;20032;-72
2022/04/30 01:25:58;;;;;;;0.30;0.30;;;7.00;71.00;;;;;;5078983;28;20055;-72
2022/04/30 01:28:25;;;;;;;0.52;0.40;;;6.80;70.90;;;;;;5114608;28;20354;-72
2022/04/30 01:30:51;;;;;;;0.38;0.35;;;6.80;71.00;;;;;;5095665;28;20042;-72
2022/04/30 01:38:37;;;;;;;0.35;0.30;;;6.80;71.10;;;;;;5113674;28;20554;-72
2022/04/30 01:41:02;;;;;;;0.65;0.50;;;6.80;71.20;;;;;;5113750;28;20035;-72
2022/04/30 01:43:29;;;;;;;0.40;0.40;;;6.70;71.20;;;;;;5096011;28;20065;-72
2022/04/30 01:45:55;;;;;;;0.40;0.35;;;6.70;71.20;;;;;;5113781;28;20067;-72
2022/04/30 01:48:22;;;;;;;0.55;0.35;;;6.70;71.30;;;;;;5113425;28;20040;-72
2022/04/30 01:50:48;;;;;;;0.40;0.35;;;6.70;72.00;;;;;;5114153;28;20500;-72
2022/04/30 01:53:14;;;;;;;0.63;0.40;;;6.60;71.30;;;;;;5114224;28;20059;-72
2022/04/30 01:55:39;;;;;;;0.50;0.45;;;6.60;71.40;;;;;;5113664;28;20035;-72
2022/04/30 01:58:05;;;;;;;0.30;0.30;;;6.60;71.50;;;;;;5113890;28;20108;-72
2022/04/30 02:00:32;;;;;;;0.38;0.38;;;6.60;71.60;;;;;;5114130;28;20536;-74
2022/04/30 02:03:05;;;;;;;0.55;0.40;;;6.60;71.60;;;;;;5114109;28;20052;-74
2022/04/30 02:05:31;;;;;;;0.63;0.47;;;6.50;71.70;;;;;;5096192;28;20051;-74
2022/04/30 02:08:06;;;;;;;0.63;0.45;;;6.60;71.80;;;;;;5078560;28;20485;-74
2022/04/30 02:10:35;;;;;;;0.45;0.40;;;6.50;72.50;;;;;;5095296;28;20039;-74
2022/04/30 02:13:03;;;;;;;1.02;0.45;;;6.50;71.90;;;;;;5113417;28;20053;-73
2022/04/30 02:15:29;;;;;;;1.67;0.65;;;6.50;71.90;;;;;;5113291;28;20031;-74
2022/04/30 02:17:57;;;;;;;0.52;0.50;;;6.50;71.90;;;;;;5113066;28;20534;-74
2022/04/30 02:20:26;;;;;;;0.82;0.52;;;6.50;72.10;;;;;;5113410;28;20048;-74
2022/04/30 02:22:55;;;;;;;0.50;0.40;;;6.40;72.00;;;;;;5113356;28;20504;-74
2022/04/30 02:25:21;;;;;;;1.45;0.65;;;6.40;72.20;;;;;;5113236;28;20401;-73
2022/04/30 02:27:51;;;;;;;0.95;0.63;;;6.40;72.20;;;;;;5113098;28;20044;-74
2022/04/30 02:30:18;;;;;;;0.88;0.57;;;6.40;72.20;;;;;;5095324;28;20397;-74
2022/04/30 02:32:48;;;;;;;0.60;0.50;;;6.30;72.20;;;;;;5078156;28;20063;-74
2022/04/30 02:35:16;;;;;;;0.55;0.50;;;6.40;72.30;;;;;;5112948;28;20089;-74
2022/04/30 02:37:48;;;;;;;0.57;0.45;;;6.30;72.30;;;;;;5113127;28;20533;-73
2022/04/30 02:40:15;;;;;;;0.90;0.60;;;6.30;72.40;;;;;;5113124;28;20043;-74
2022/04/30 02:42:42;;;;;;;1.15;0.80;;;6.30;72.40;;;;;;5095356;28;20483;-74
2022/04/30 02:45:09;;;;;;;0.50;0.50;;;6.30;72.50;;;;;;5112871;28;20044;-74
2022/04/30 02:47:38;;;;;;;0.70;0.60;;;6.30;72.50;;;;;;5112861;28;20055;-74
2022/04/30 02:50:06;;;;;;;0.50;0.50;;;6.30;72.60;;;;;;5113145;28;20051;-75
2022/04/30 02:52:31;;;;;;;0.52;0.32;;;6.30;72.60;;;;;;5112914;28;20044;-74
2022/04/30 02:54:57;;;;;;;0.40;0.40;;;6.30;72.60;;;;;;5112559;28;20042;-74
2022/04/30 02:57:23;;;;;;;0.75;0.60;;;6.30;72.70;;;;;;5113332;28;20124;-74
2022/04/30 02:59:55;;;;;;;0.85;0.52;;;6.30;72.60;;;;;;5094433;28;20044;-74
2022/04/30 03:02:22;;;;;;;0.52;0.43;;;6.30;72.60;;;;;;5112634;28;20055;-74
2022/04/30 03:04:51;;;;;;;0.50;0.50;;;6.30;72.70;;;;;;5113064;28;20044;-74
2022/04/30 03:07:18;;;;;;;0.93;0.52;;;6.30;72.70;;;;;;5112207;28;20032;-74
2022/04/30 03:09:47;;;;;;;0.77;0.50;;;6.30;72.80;;;;;;5112381;28;20564;-74
2022/04/30 03:12:13;;;;;;;0.98;0.60;;;6.20;72.70;;;;;;5112893;28;20055;-74
2022/04/30 03:14:40;;;;;;;0.47;0.47;;;6.20;72.90;;;;;;5112944;28;20031;-74
2022/04/30 03:22:22;;;;;;;0.80;0.60;;;6.20;73.20;;;;;;5095650;28;20054;-74
2022/04/30 03:24:48;;;;;;;1.08;0.70;;;6.20;73.20;;;;;;5112258;28;20036;-74
2022/04/30 03:27:17;;;;;;;0.73;0.60;;;6.20;73.20;;;;;;5112236;28;20094;-74
2022/04/30 03:29:44;;;;;;;0.80;0.50;;;6.10;73.20;;;;;;5113691;28;20112;-74
2022/04/30 03:32:10;;;;;;;0.98;0.65;;;6.10;73.30;;;;;;5064464;28;20039;-73
2022/04/30 03:34:36;;;;;;;0.55;0.40;;;6.00;73.30;;;;;;5116487;28;20441;-73
2022/04/30 03:37:02;;;;;;;1.27;0.60;;;6.10;73.50;;;;;;5115897;28;20036;-73
2022/04/30 03:39:28;;;;;;;0.95;0.60;;;6.10;73.50;;;;;;5116105;28;20036;-73
2022/04/30 03:41:53;;;;;;;0.68;0.60;;;6.00;73.50;;;;;;5097494;28;20093;-73
2022/04/30 03:44:19;;;;;;;1.88;0.50;;;6.10;73.70;;;;;;5097535;28;20035;-74
2022/04/30 03:46:45;;;;;;;0.63;0.63;;;6.00;73.70;;;;;;5097410;28;20460;-74
2022/04/30 03:49:11;;;;;;;0.60;0.57;;;6.00;73.80;;;;;;5115678;28;20051;-74
2022/04/30 03:51:36;;;;;;;0.80;0.60;;;6.00;73.80;;;;;;5097519;28;20036;-73
2022/04/30 03:54:05;;;;;;;0.43;0.40;;;6.00;73.90;;;;;;5116167;28;20488;-74
2022/04/30 03:56:32;;;;;;;0.52;0.35;;;6.00;73.90;;;;;;5064760;28;20047;-73
2022/04/30 03:58:58;;;;;;;0.73;0.50;;;6.00;73.90;;;;;;5116181;28;20473;-73
2022/04/30 04:01:24;;;;;;;0.40;0.40;;;6.00;74.00;;;;;;5097220;28;20047;-73
2022/04/30 04:03:50;;;;;;;0.50;0.40;;;5.90;74.00;;;;;;5098058;28;20067;-73
2022/04/30 04:06:17;;;;;;;0.50;0.45;;;5.90;74.00;;;;;;5115631;28;20122;-73
2022/04/30 04:08:49;;;;;;;0.30;0.30;;;5.90;74.70;;;;;;5116059;28;20100;-73
2022/04/30 04:11:15;;;;;;;0.50;0.40;;;5.80;74.00;;;;;;5115659;28;20031;-73
2022/04/30 04:18:57;;;;;;;1.00;0.68;;;5.90;74.20;;;;;;5115344;28;20055;-74
2022/04/30 04:21:23;;;;;;;1.08;0.57;;;5.80;74.20;;;;;;5097304;28;20401;-74
2022/04/30 04:26:28;;;;;;;0.80;0.60;;;5.80;74.40;;;;;;5099230;28;20147;-73
2022/04/30 04:28:54;;;;;;;0.73;0.65;;;5.80;74.90;;;;;;5115253;28;20508;-74
2022/04/30 04:31:22;;;;;;;0.43;0.43;;;5.80;74.30;;;;;;5115650;28;20031;-73
2022/04/30 04:33:48;;;;;;;0.52;0.52;;;5.80;74.40;;;;;;5114985;28;20127;-73
2022/04/30 04:36:14;;;;;;;0.77;0.60;;;5.70;74.40;;;;;;5114911;28;20481;-73
2022/04/30 04:38:39;;;;;;;0.50;0.43;;;5.80;74.40;;;;;;5115714;28;20034;-73
2022/04/30 04:41:05;;;;;;;0.60;0.40;;;5.80;75.10;;;;;;5095938;28;20516;-73
2022/04/30 04:43:31;;;;;;;0.90;0.50;;;5.90;74.50;;;;;;5097487;28;20071;-73
2022/04/30 04:45:56;;;;;;;0.80;0.60;;;5.80;74.50;;;;;;5096909;28;20042;-73
2022/04/30 04:48:22;;;;;;;0.88;0.50;;;5.80;74.60;;;;;;5115254;28;20503;-73
2022/04/30 04:50:48;;;;;;;0.68;0.55;;;5.80;74.60;;;;;;5096655;28;20043;-74
2022/04/30 04:53:14;;;;;;;0.45;0.38;;;5.80;74.60;;;;;;5115048;28;20489;-73
2022/04/30 04:55:40;;;;;;;0.38;0.35;;;5.80;74.60;;;;;;5115144;28;20123;-73
2022/04/30 04:58:05;;;;;;;0.28;0.22;;;5.80;74.70;;;;;;5114860;28;20064;-73
2022/04/30 05:00:33;;;;;;;0.70;0.40;;;5.80;74.70;;;;;;5115382;28;20381;-73
2022/04/30 05:02:59;;;;;;;1.02;0.60;;;5.80;75.30;;;;;;5115447;28;20047;-73
2022/04/30 05:05:25;;;;;;;0.50;0.47;;;5.80;74.70;;;;;;5115188;28;20036;-73
2022/04/30 05:07:50;;;;;;;0.80;0.60;;;5.90;74.70;;;;;;5114953;28;20062;-73
2022/04/30 05:10:16;;;;;;;0.38;0.30;;;5.90;74.60;;;;;;5114905;28;20466;-73
2022/04/30 05:12:45;;;;;;;0.82;0.60;;;5.90;74.60;;;;;;5114911;28;20481;-73
2022/04/30 05:15:11;;;;;;;0.95;0.60;;;5.90;74.60;;;;;;5114534;28;20122;-73
2022/04/30 05:17:37;;;;;;;1.02;0.70;;;6.00;74.60;;;;;;5096428;28;20130;-73
2022/04/30 05:20:05;;;;;;;0.40;0.40;;;5.90;74.40;;;;;;5096281;28;20127;-73
2022/04/30 05:22:31;;;;;;;0.90;0.70;;;6.10;74.50;;;;;;5096589;28;20044;-74
2022/04/30 05:24:56;;;;;;;0.38;0.30;;;6.10;74.40;;;;;;5115011;28;20035;-73
2022/04/30 05:27:23;;;;;;;0.47;0.43;;;6.20;74.40;;;;;;5115000;28;20053;-73
2022/04/30 05:29:48;;;;;;;0.82;0.45;;;6.20;74.20;;;;;;5095879;28;20088;-74
2022/04/30 05:32:14;;;;;;;0.80;0.60;;;6.30;74.30;;;;;;5114306;28;20039;-74
2022/04/30 05:34:40;;;;;;;0.73;0.50;;;6.40;74.20;;;;;;5114498;28;20031;-73
2022/04/30 05:37:06;;;;;;;0.43;0.40;;;6.50;74.10;;;;;;5114417;28;21481;-73
2022/04/30 05:39:32;;;;;;;0.77;0.60;;;6.60;74.00;;;;;;5096052;28;20040;-73
2022/04/30 05:41:57;;;;;;;0.77;0.50;;;6.60;73.90;;;;;;5114724;28;20039;-73
2022/04/30 05:44:23;;;;;;;0.80;0.45;;;6.70;73.80;;;;;;5114629;28;20085;-73
2022/04/30 05:46:49;;;;;;;0.63;0.50;;;6.80;73.70;;;;;;5114411;28;20091;-74
2022/04/30 05:49:15;;;;;;;1.02;0.70;;;6.80;73.70;;;;;;5095935;28;20043;-73
2022/04/30 05:51:40;;;;;;;0.40;0.40;;;6.90;73.60;;;;;;5114043;28;20039;-74
2022/04/30 05:54:07;;;;;;;0.68;0.60;;;7.00;73.50;;;;;;5113925;28;20069;-74
2022/04/30 05:56:33;;;;;;;1.15;0.70;;;7.10;73.50;;;;;;5095776;28;20031;-73
2022/04/30 05:58:59;;;;;;;0.47;0.47;;;7.20;73.40;;;;;;5113993;28;20040;-74
2022/04/30 06:01:25;;;;;;;0.30;0.30;;;7.40;73.40;;;;;;5114386;28;20050;-74
2022/04/30 06:03:51;;;;;;;0.50;0.43;;;7.40;73.20;;;;;;5114343;28;20039;-74
2022/04/30 06:06:19;;;;;;;0.45;0.45;;;7.50;73.20;;;;;;5114449;28;20582;-74
2022/04/30 06:08:46;;;;;;;0.52;0.45;;;7.60;73.10;;;;;;5096642;28;20051;-74
2022/04/30 06:11:12;;;;;;;0.52;0.50;;;7.60;73.00;;;;;;5113793;28;20043;-73
2022/04/30 06:13:38;;;;;;;0.80;0.50;;;7.80;72.90;;;;;;5078735;28;20036;-74
2022/04/30 06:16:04;;;;;;;0.50;0.40;;;7.90;72.80;;;;;;5113843;28;20143;-74
2022/04/30 06:18:30;;;;;;;0.60;0.60;;;8.00;72.70;;;;;;5113617;28;20100;-74
2022/04/30 06:20:55;;;;;;;0.38;0.38;;;8.10;72.60;;;;;;5095456;28;20089;-73
2022/04/30 06:23:21;;;;;;;0.50;0.50;;;8.20;72.50;;;;;;5113743;28;20038;-73
2022/04/30 06:25:47;;;;;;;0.40;0.40;;;8.30;72.50;;;;;;5113665;28;20054;-73
2022/04/30 06:28:14;;;;;;;0.50;0.50;;;8.30;72.40;;;;;;5113515;28;20123;-74
2022/04/30 06:30:41;;;;;;;1.58;0.60;;;8.30;72.30;;;;;;5113537;28;20043;-73
2022/04/30 06:33:07;;;;;;;1.25;0.50;;;8.50;72.40;;;;;;5113827;28;20043;-74
2022/04/30 06:35:35;;;;;;;0.40;0.40;;;8.50;72.30;;;;;;5095614;28;20031;-73
2022/04/30 06:38:01;;;;;;;0.50;0.38;;;8.60;72.30;;;;;;5113653;28;20035;-73
2022/04/30 06:40:27;;;;;;;0.63;0.60;;;8.70;72.30;;;;;;5095156;28;20477;-74
2022/04/30 06:42:53;;;;;;;0.50;0.40;;;8.70;72.80;;;;;;5114038;28;20386;-74
2022/04/30 06:45:19;;;;;;;0.40;0.40;;;8.70;72.10;;;;;;5094960;28;20043;-73
2022/04/30 06:47:45;;;;;;;0.40;0.40;;;8.80;72.20;;;;;;5113908;28;20039;-73
2022/04/30 06:50:11;;;;;;;0.50;0.50;;;8.90;72.20;;;;;;5113007;28;20477;-74
2022/04/30 06:57:57;;;;;;;1.33;0.60;;;9.00;72.10;;;;;;5113030;28;20034;-73
2022/04/30 07:03:08;;;;;;;1.67;0.60;;;9.20;72.00;;;;;;5112985;28;20044;-73
2022/04/30 07:05:34;;;;;;;0.52;0.40;;;9.20;71.80;;;;;;5094760;28;20065;-73
2022/04/30 07:08:00;;;;;;;1.10;0.60;;;9.30;71.80;;;;;;5095459;28;20130;-73
2022/04/30 07:10:26;;;;;;;1.38;0.70;;;9.40;71.60;;;;;;5095601;28;20134;-74
2022/04/30 07:12:51;;;;;;;0.50;0.50;;;9.50;71.40;;;;;;5112838;28;20039;-73
2022/04/30 07:15:18;;;;;;;1.65;0.60;;;9.60;71.10;;;;;;5112678;28;20047;-73
2022/04/30 07:17:46;;;;;;;0.57;0.57;;;9.70;70.90;;;;;;5113008;28;20169;-73
2022/04/30 07:20:12;;;;;;;0.70;0.55;;;9.80;70.80;;;;;;5094448;28;20052;-73
2022/04/30 07:22:38;;;;;;;0.40;0.40;;;10.00;70.70;;;;;;5095025;28;20077;-74
2022/04/30 07:25:06;;;;;;;0.95;0.60;;;10.00;70.40;;;;;;5094541;28;20036;-73
2022/04/30 07:27:32;;;;;;;0.90;0.60;;;10.10;70.30;;;;;;5094938;28;20145;-73
2022/04/30 07:29:58;;;;;;;0.70;0.70;;;10.20;70.10;;;;;;5094454;28;20497;-73
2022/04/30 07:32:24;;;;;;;0.93;0.50;;;10.20;70.10;;;;;;5094567;28;20035;-73
2022/04/30 07:34:49;;;;;;;0.40;0.40;;;10.30;70.00;;;;;;5078095;28;20445;-73
2022/04/30 07:37:16;;;;;;;1.10;0.70;;;10.40;69.90;;;;;;5112911;28;20126;-73
2022/04/30 07:39:42;;;;;;;0.68;0.60;;;10.60;69.80;;;;;;5112764;28;20060;-73
2022/04/30 07:42:08;;;;;;;0.50;0.50;;;10.60;69.70;;;;;;5113038;28;20458;-73
2022/04/30 07:44:34;;;;;;;0.95;0.70;;;10.70;69.60;;;;;;5112556;28;20048;-73
2022/04/30 07:47:00;;;;;;;0.82;0.80;;;10.80;69.50;;;;;;5112457;28;20172;-73
2022/04/30 07:49:25;;;;;;;0.90;0.60;;;10.90;69.30;;;;;;5094250;28;20039;-72
2022/04/30 07:51:58;;;;;;;0.75;0.73;;;11.10;69.10;;;;;;5112507;28;20119;-72
2022/04/30 07:54:25;;;;;;;1.10;0.75;;;11.20;68.80;;;;;;5112813;28;20036;-72
2022/04/30 07:56:56;;;;;;;0.95;0.80;;;11.40;68.80;;;;;;5112705;28;20050;-73
2022/04/30 07:59:22;;;;;;;0.60;0.50;;;11.60;68.70;;;;;;5077299;28;20169;-72
2022/04/30 08:01:49;;;;;;;0.80;0.60;;;11.80;68.20;;;;;;5094476;28;20036;-72
2022/04/30 08:04:16;;;;;;;0.80;0.63;;;12.00;67.90;;;;;;5094152;28;20049;-73
2022/04/30 08:06:41;;;;;;;1.35;0.90;;;12.20;67.70;;;;;;5094286;28;20081;-73
2022/04/30 08:09:07;;;;;;;1.70;0.80;;;12.30;67.60;;;;;;5112408;28;20046;-73
2022/04/30 08:11:33;;;;;;;0.80;0.80;;;12.50;67.50;;;;;;5094321;28;20057;-73
2022/04/30 08:13:59;;;;;;;1.00;0.70;;;12.60;67.30;;;;;;5093816;28;20043;-73
2022/04/30 08:16:24;;;;;;;0.80;0.80;;;12.70;67.10;;;;;;5096024;28;20047;-72
2022/04/30 08:18:51;;;;;;;1.67;1.15;;;12.60;67.00;;;;;;5116301;28;20031;-73
2022/04/30 08:21:17;;;;;;;1.00;0.90;;;12.60;67.30;;;;;;5115777;28;20093;-73
2022/04/30 08:23:43;;;;;;;1.45;1.20;;;12.50;67.50;;;;;;5115646;28;20493;-73
2022/04/30 08:26:08;;;;;;;0.90;0.80;;;12.30;67.90;;;;;;5097763;28;20062;-73
2022/04/30 08:28:34;;;;;;;0.80;0.80;;;12.20;68.20;;;;;;5115452;28;20028;-73
2022/04/30 08:31:00;;;;;;;1.10;0.77;;;12.10;68.50;;;;;;5097757;28;20040;-73
2022/04/30 08:33:26;;;;;;;1.25;0.90;;;12.10;68.70;;;;;;5115252;28;20046;-74
2022/04/30 08:35:52;;;;;;;0.93;0.77;;;12.10;68.80;;;;;;5080223;28;20473;-74
2022/04/30 08:38:18;;;;;;;1.05;0.85;;;12.00;68.80;;;;;;5116108;28;20042;-73
2022/04/30 08:40:44;;;;;;;1.00;0.90;;;12.10;69.00;;;;;;5097626;28;20035;-73
2022/04/30 08:43:11;;;;;;;1.00;0.90;;;12.00;68.90;;;;;;5115227;28;20050;-73
2022/04/30 08:45:38;;;;;;;1.10;0.90;;;12.00;68.90;;;;;;5096962;28;20036;-73
2022/04/30 08:48:07;;;;;;;1.00;0.90;;;12.10;68.90;;;;;;5115216;28;20047;-73
2022/04/30 08:50:33;;;;;;;0.70;0.70;;;12.10;68.90;;;;;;5095030;28;20044;-73
2022/04/30 08:52:59;;;;;;;1.08;0.88;;;12.10;68.80;;;;;;5115004;28;20065;-73
2022/04/30 08:55:24;;;;;;;1.17;0.88;;;12.10;68.80;;;;;;5114935;28;20035;-73
2022/04/30 08:57:50;;;;;;;1.20;0.75;;;12.20;69.30;;;;;;5114957;28;20051;-73
2022/04/30 09:00:16;;;;;;;0.70;0.68;;;12.30;68.80;;;;;;5114681;28;20036;-73
2022/04/30 09:02:59;;;;;;;1.20;0.70;;;12.30;68.60;;;;;;5096681;28;20054;-73
2022/04/30 09:05:35;;;;;;;0.65;0.65;;;12.40;68.30;;;;;;5095565;28;20142;-73
2022/04/30 09:08:01;;;;;;;0.65;0.60;;;12.60;68.30;;;;;;5114641;28;20050;-73
2022/04/30 09:10:30;;;;;;;1.00;0.90;;;12.90;67.80;;;;;;5114761;28;20420;-73
2022/04/30 09:13:05;;;;;;;0.85;0.70;;;13.10;67.50;;;;;;5097139;28;20047;-74
2022/04/30 09:15:32;;;;;;;0.80;0.80;;;13.30;67.00;;;;;;5115843;28;20039;-74
2022/04/30 09:17:58;;;;;;;0.80;0.70;;;13.50;66.70;;;;;;5118443;28;20035;-74
2022/04/30 09:20:25;;;;;;;0.88;0.70;;;13.60;66.40;;;;;;5096538;28;20493;-73
2022/04/30 09:22:51;;;;;;;0.52;0.50;;;13.60;66.30;;;;;;5115196;28;20455;-73
2022/04/30 09:25:18;;;;;;;0.60;0.60;;;13.50;66.40;;;;;;5114478;28;20050;-73
2022/04/30 09:27:50;;;;;;;0.93;0.68;;;13.40;66.70;;;;;;5095333;28;20062;-74
2022/04/30 09:30:17;;;;;;;;;;;13.40;67.00;;;;;;5096976;28;20051;-73
2022/04/30 09:32:42;;;;;;;0.57;0.57;;;13.30;67.40;;;;;;5114178;28;20377;-73
2022/04/30 09:37:59;;;;;;;0.50;0.50;;;13.50;66.90;;;;;;5113413;28;20397;-73
2022/04/30 09:40:25;;;;;;;0.55;0.55;;;13.70;66.90;;;;;;5114742;28;20044;-73
2022/04/30 09:42:51;;;;;;;0.93;0.60;;;13.80;66.60;;;;;;5116067;28;20430;-73
2022/04/30 09:45:29;;;;;;;0.85;0.63;;;14.10;66.30;;;;;;5114215;28;20507;-73
2022/04/30 09:47:56;;;;;;;0.60;0.60;;;14.20;66.00;;;;;;5114335;28;20410;-74
2022/04/30 09:55:44;;;;;;;1.40;0.98;;;14.10;65.60;;;;;;5114030;28;20040;-74
2022/04/30 09:58:15;;;;;;;0.82;0.63;;;14.00;66.20;;;;;;5112864;28;20071;-75
2022/04/30 10:00:41;;;;;;;0.75;0.70;;;13.90;66.40;;;;;;5094130;28;20035;-74
2022/04/30 10:03:08;;;;;;;1.00;0.80;;;13.90;66.50;;;;;;5095679;28;20039;-73
2022/04/30 10:05:36;;;;;;;0.90;0.80;;;13.80;66.70;;;;;;5114195;28;20040;-74
2022/04/30 10:08:02;;;;;;;1.10;0.70;;;13.80;66.80;;;;;;5114442;28;20084;-74
2022/04/30 10:10:41;;;;;;;1.15;0.80;;;13.80;66.60;;;;;;5113688;28;20095;-74
2022/04/30 10:13:31;;;;;;;0.80;0.70;;;13.90;66.60;;;;;;5113995;28;20035;-74
2022/04/30 10:15:58;;;;;;;0.77;0.63;;;13.80;66.50;;;;;;5111900;28;20540;-74
2022/04/30 10:18:43;;;;;;;0.75;0.60;;;13.80;66.60;;;;;;5113524;28;20542;-74
2022/04/30 10:21:18;;;;;;;0.40;0.40;;;13.70;66.80;;;;;;5113620;28;20043;-72
2022/04/30 10:23:44;;;;;;;1.05;0.70;;;13.60;66.90;;;;;;5112421;28;20078;-72
2022/04/30 10:26:10;;;;;;;0.70;0.70;;;13.50;67.00;;;;;;5113655;28;20051;-74
2022/04/30 10:28:36;;;;;;;0.80;0.80;;;13.50;67.20;;;;;;5113877;28;20130;-74
2022/04/30 10:31:05;;;;;;;0.80;0.80;;;13.40;67.20;;;;;;5095149;28;20114;-74
2022/04/30 10:33:32;;;;;;;0.70;0.70;;;13.20;67.30;;;;;;5113863;28;20070;-74
2022/04/30 10:36:07;;;;;;;0.70;0.68;;;13.20;67.40;;;;;;5113471;28;20051;-74
2022/04/30 10:38:34;;;;;;;1.00;0.70;;;13.20;67.40;;;;;;5112099;28;20039;-73
2022/04/30 10:41:02;;;;;;;0.50;0.50;;;13.20;67.50;;;;;;5113246;28;20449;-74
2022/04/30 10:43:32;;;;;;;0.77;0.77;;;13.10;67.50;;;;;;5095287;28;20382;-74
2022/04/30 10:45:58;;;;;;;0.80;0.77;;;13.10;67.50;;;;;;5113759;28;20036;-74
2022/04/30 10:48:25;;;;;;;1.33;1.05;;;13.00;67.30;;;;;;5094830;28;20378;-74
2022/04/30 10:51:10;;;;;;;1.20;1.10;;;13.00;67.90;;;;;;5094788;28;20046;-74
2022/04/30 10:53:41;;;;;;;1.17;0.90;;;13.00;67.20;;;;;;5113389;28;20039;-74
2022/04/30 10:56:08;;;;;;;0.93;0.82;;;13.00;67.10;;;;;;5094862;28;20044;-74
2022/04/30 10:58:37;;;;;;;0.93;0.90;;;13.00;67.10;;;;;;5113558;28;20369;-74
2022/04/30 11:01:20;;;;;;;0.75;0.75;;;13.10;67.00;;;;;;5112986;28;20511;-73
2022/04/30 11:03:48;;;;;;;1.00;0.90;;;13.00;66.70;;;;;;5094921;28;20474;-74
2022/04/30 11:06:23;;;;;;;0.95;0.90;;;13.00;66.70;;;;;;5112758;28;20072;-74
2022/04/30 11:09:01;;;;;;;1.35;0.80;;;13.00;66.50;;;;;;5111980;28;20048;-74
2022/04/30 11:11:28;;;;;;;1.05;0.88;;;13.00;66.30;;;;;;5113184;28;20377;-74
2022/04/30 11:14:03;;;;;;;0.68;0.68;;;13.00;66.30;;;;;;5113054;28;20044;-74
2022/04/30 11:16:35;;;;;;;0.60;0.60;;;13.10;66.20;;;;;;5113086;28;20035;-74
2022/04/30 11:19:07;;;;;;;0.70;0.70;;;13.10;66.20;;;;;;5094431;28;20404;-74
2022/04/30 11:21:37;;;;;;;1.35;0.75;;;13.10;66.10;;;;;;5095667;28;20393;-74
2022/04/30 11:24:03;;;;;;;0.80;0.80;;;13.10;65.90;;;;;;5094870;28;20438;-74
2022/04/30 11:26:30;;;;;;;0.82;0.65;;;13.20;65.90;;;;;;5112592;28;20035;-74
2022/04/30 11:28:57;;;;;;;0.60;0.60;;;13.20;65.90;;;;;;5112558;28;20123;-74
2022/04/30 11:31:23;;;;;;;1.88;0.93;;;13.20;65.80;;;;;;5112729;28;20043;-74
2022/04/30 11:33:49;;;;;;;0.80;0.50;;;13.30;65.60;;;;;;5112581;28;20073;-75
2022/04/30 11:36:15;;;;;;;1.77;0.90;;;13.30;65.40;;;;;;5112673;28;20039;-74
2022/04/30 11:38:50;;;;;;;0.65;0.60;;;13.30;65.40;;;;;;5095168;28;20035;-74
2022/04/30 11:41:16;;;;;;;0.50;0.50;;;13.30;65.40;;;;;;5112377;28;20059;-74
2022/04/30 11:43:41;;;;;;;1.10;0.63;;;13.30;65.50;;;;;;5113088;28;20089;-74
2022/04/30 11:46:07;;;;;;;0.50;0.50;;;13.30;65.40;;;;;;5112903;28;20126;-74
2022/04/30 11:48:40;;;;;;;0.60;0.60;;;13.40;65.30;;;;;;5113009;28;20047;-75
2022/04/30 11:51:07;;;;;;;0.60;0.60;;;13.40;65.10;;;;;;5114870;28;20039;-74
2022/04/30 11:53:34;;;;;;;0.80;0.63;;;13.50;65.00;;;;;;5116005;28;20126;-74
2022/04/30 11:56:00;;;;;;;1.50;0.63;;;13.50;64.90;;;;;;5116599;28;20051;-74
2022/04/30 11:58:25;;;;;;;1.27;0.65;;;13.60;64.80;;;;;;5097329;28;20067;-74
2022/04/30 12:00:52;;;;;;;0.60;0.60;;;13.60;64.60;;;;;;5098232;28;20103;-75
2022/04/30 12:03:26;;;;;;;1.52;0.77;;;13.70;64.60;;;;;;5116075;28;20036;-74
2022/04/30 12:05:52;;;;;;;0.80;0.80;;;13.80;64.40;;;;;;5096826;28;20447;-74
2022/04/30 12:08:18;;;;;;;0.60;0.52;;;13.90;64.40;;;;;;5115939;28;20040;-73
2022/04/30 12:10:54;;;;;;;1.00;0.90;;;13.90;64.10;;;;;;5115581;28;20047;-72
2022/04/30 12:13:24;;;;;;;1.13;0.70;;;13.90;64.00;;;;;;5097775;28;20444;-73
2022/04/30 12:16:02;;;;;;;0.68;0.60;;;13.90;64.00;;;;;;5116061;28;20435;-73
2022/04/30 12:26:51;;;;;;;0.60;0.60;;;14.00;63.70;;;;;;5113574;28;20047;-72
2022/04/30 12:29:19;;;;;;;0.50;0.50;;;14.00;63.70;;;;;;5115238;28;20495;-72
2022/04/30 12:31:47;;;;;;;0.60;0.60;;;14.10;63.70;;;;;;5115087;28;20093;-73
2022/04/30 12:34:28;;;;;;;0.70;0.70;;;14.10;63.80;;;;;;5115675;28;20110;-72
2022/04/30 12:36:58;;;;;;;0.40;0.40;;;14.10;63.70;;;;;;5115477;28;20473;-72
2022/04/30 12:39:24;;;;;;;0.85;0.60;;;14.00;63.70;;;;;;5113592;28;20036;-73
2022/04/30 12:41:51;;;;;;;0.57;0.57;;;14.00;63.90;;;;;;5115232;28;20046;-72
2022/04/30 12:44:17;;;;;;;0.68;0.50;;;14.00;64.00;;;;;;5114938;28;20066;-73
2022/04/30 12:46:44;;;;;;;0.77;0.70;;;13.90;64.10;;;;;;5115395;28;20481;-73
2022/04/30 12:49:12;;;;;;;0.65;0.60;;;13.90;64.10;;;;;;5097348;28;20047;-72
2022/04/30 12:51:39;;;;;;;0.60;0.60;;;13.90;64.20;;;;;;5115261;28;20027;-72
2022/04/30 12:54:06;;;;;;;0.70;0.70;;;13.80;64.20;;;;;;5115643;28;20032;-72
2022/04/30 12:56:32;;;;;;;0.73;0.65;;;13.80;64.40;;;;;;5096600;28;20126;-72
2022/04/30 12:58:58;;;;;;;0.98;0.75;;;13.70;64.40;;;;;;5114929;28;20093;-72
2022/04/30 13:01:24;;;;;;;0.98;0.82;;;13.60;64.50;;;;;;5114321;28;20044;-72
2022/04/30 13:03:50;;;;;;;0.98;0.85;;;13.60;64.60;;;;;;5096794;28;20044;-72
2022/04/30 13:06:17;;;;;;;0.73;0.65;;;13.50;64.50;;;;;;5114870;28;20032;-72
2022/04/30 13:14:06;;;;;;;1.10;0.60;;;13.40;64.60;;;;;;5114669;28;20088;-72
2022/04/30 13:16:33;;;;;;;0.60;0.60;;;13.30;64.50;;;;;;5114482;28;20039;-72
2022/04/30 13:18:59;;;;;;;0.70;0.70;;;13.30;64.50;;;;;;5112955;28;20477;-72
2022/04/30 13:21:26;;;;;;;0.70;0.60;;;13.20;64.40;;;;;;5114886;28;20057;-72
2022/04/30 13:23:51;;;;;;;1.30;0.88;;;13.20;64.40;;;;;;5114485;28;20169;-72
2022/04/30 13:26:20;;;;;;;0.75;0.60;;;13.30;64.10;;;;;;5114574;28;20116;-72
2022/04/30 13:28:46;;;;;;;1.13;1.00;;;13.30;63.90;;;;;;5114910;28;20046;-72
2022/04/30 13:31:12;;;;;;;0.60;0.60;;;13.30;63.80;;;;;;5114725;28;20042;-72
2022/04/30 13:33:38;;;;;;;0.82;0.80;;;13.40;63.70;;;;;;5114355;28;20427;-73
2022/04/30 13:36:05;;;;;;;1.10;0.80;;;13.30;63.60;;;;;;5114736;28;20457;-73
2022/04/30 13:38:31;;;;;;;0.80;0.60;;;13.40;63.50;;;;;;5079795;28;20384;-73
2022/04/30 13:40:58;;;;;;;0.82;0.60;;;13.30;63.20;;;;;;5114185;28;20039;-72